createdAt,value
2019-03-31T00:00:51.248Z,27.9515
2019-03-31T00:01:53.600Z,27.9973
2019-03-31T00:02:55.905Z,28.0888
2019-03-31T00:03:58.202Z,28.0293
2019-03-31T00:05:00.575Z,28.0156
2019-03-31T00:06:03.002Z,27.9240
2019-03-31T00:07:05.297Z,28.0125
2019-03-31T00:08:07.601Z,28.0293
2019-03-31T00:09:09.886Z,28.0385
2019-03-31T00:10:12.183Z,27.9805
2019-03-31T00:11:14.479Z,28.0125
2019-03-31T00:12:16.779Z,28.0400
2019-03-31T00:13:19.066Z,28.0705
2019-03-31T00:14:21.348Z,27.9377
2019-03-31T00:15:23.676Z,27.9789
2019-03-31T00:16:25.970Z,28.0110
2019-03-31T00:17:28.266Z,28.0125
2019-03-31T00:18:30.572Z,27.9377
2019-03-31T00:19:32.868Z,27.9805
2019-03-31T00:20:35.149Z,27.9789
2019-03-31T00:21:37.453Z,27.9072
2019-03-31T00:22:39.751Z,27.9347
2019-03-31T00:23:42.034Z,27.9927
2019-03-31T00:24:44.326Z,28.0079
2019-03-31T00:25:46.616Z,28.0079
2019-03-31T00:26:48.916Z,28.0491
2019-03-31T00:27:51.214Z,27.9896
2019-03-31T00:28:53.511Z,27.9896
2019-03-31T00:29:55.804Z,28.0491
2019-03-31T00:30:58.102Z,27.9332
2019-03-31T00:32:00.411Z,28.0064
2019-03-31T00:33:02.688Z,27.9164
2019-03-31T00:34:04.979Z,27.9469
2019-03-31T00:35:07.273Z,27.9469
2019-03-31T00:36:09.581Z,28.0064
2019-03-31T00:37:11.884Z,27.9881
2019-03-31T00:38:14.176Z,27.9438
2019-03-31T00:39:16.479Z,27.9881
2019-03-31T00:40:18.772Z,27.9576
2019-03-31T00:41:21.072Z,27.9881
2019-03-31T00:42:23.379Z,27.9881
2019-03-31T00:43:25.664Z,27.8523
2019-03-31T00:44:27.967Z,28.0293
2019-03-31T00:45:30.256Z,27.9286
2019-03-31T00:46:32.551Z,27.9850
2019-03-31T00:47:34.863Z,27.9561
2019-03-31T00:48:37.158Z,27.9469
2019-03-31T00:49:39.441Z,27.9118
2019-03-31T00:50:41.734Z,27.9255
2019-03-31T00:51:44.019Z,27.9713
2019-03-31T00:52:46.326Z,27.9530
2019-03-31T00:53:48.629Z,28.0018
2019-03-31T00:54:50.918Z,27.8660
2019-03-31T00:55:53.211Z,27.9103
2019-03-31T00:56:55.513Z,27.8691
2019-03-31T00:57:57.803Z,27.9835
2019-03-31T00:59:00.137Z,27.9835
2019-03-31T01:00:02.428Z,28.0247
2019-03-31T01:01:04.725Z,27.9667
2019-03-31T01:02:07.008Z,27.9515
2019-03-31T01:03:09.311Z,27.9835
2019-03-31T01:04:11.616Z,27.8965
2019-03-31T01:05:13.907Z,28.0568
2019-03-31T01:06:16.205Z,28.0400
2019-03-31T01:07:18.499Z,27.9393
2019-03-31T01:08:20.803Z,28.0262
2019-03-31T01:09:23.086Z,27.9988
2019-03-31T01:10:25.390Z,27.9377
2019-03-31T01:11:27.693Z,27.8935
2019-03-31T01:12:29.985Z,27.9988
2019-03-31T01:13:32.285Z,27.9103
2019-03-31T01:14:34.570Z,27.9377
2019-03-31T01:15:36.864Z,27.9377
2019-03-31T01:16:39.159Z,27.9377
2019-03-31T01:17:41.447Z,28.0110
2019-03-31T01:18:43.747Z,28.0110
2019-03-31T01:19:46.059Z,27.8889
2019-03-31T01:20:48.353Z,27.9622
2019-03-31T01:21:50.641Z,27.9484
2019-03-31T01:22:53.014Z,27.9332
2019-03-31T01:23:55.655Z,27.9622
2019-03-31T01:24:57.945Z,27.9347
2019-03-31T01:26:00.562Z,27.8599
2019-03-31T01:27:02.976Z,27.8920
2019-03-31T01:28:05.270Z,27.9484
2019-03-31T01:29:07.562Z,27.9332
2019-03-31T01:30:09.872Z,27.9194
2019-03-31T01:31:12.158Z,27.9332
2019-03-31T01:32:14.454Z,27.9606
2019-03-31T01:33:16.750Z,27.9164
2019-03-31T01:34:19.073Z,27.9164
2019-03-31T01:35:21.359Z,27.9164
2019-03-31T01:36:23.657Z,28.0064
2019-03-31T01:37:25.955Z,27.9149
2019-03-31T01:38:28.248Z,27.9164
2019-03-31T01:39:30.668Z,27.9896
2019-03-31T01:40:41.668Z,27.9713
2019-03-31T01:41:51.255Z,27.9164
2019-03-31T01:42:53.607Z,27.9759
2019-03-31T01:43:55.913Z,28.0308
2019-03-31T01:44:58.218Z,27.8828
2019-03-31T01:46:00.526Z,27.8828
2019-03-31T01:47:02.915Z,27.9713
2019-03-31T01:48:05.216Z,27.9286
2019-03-31T01:49:07.512Z,28.0034
2019-03-31T01:50:09.823Z,27.9988
2019-03-31T01:51:12.114Z,27.8508
2019-03-31T01:52:14.422Z,28.0110
2019-03-31T01:53:16.724Z,27.9850
2019-03-31T01:54:19.020Z,27.9255
2019-03-31T01:55:21.312Z,27.9988
2019-03-31T01:56:23.614Z,28.0400
2019-03-31T01:57:25.916Z,28.0293
2019-03-31T01:58:28.208Z,28.0842
2019-03-31T01:59:30.528Z,28.0842
2019-03-31T02:00:32.874Z,27.9973
2019-03-31T02:01:35.172Z,28.0995
2019-03-31T02:02:37.468Z,28.1315
2019-03-31T02:03:48.286Z,28.1315
2019-03-31T02:04:59.246Z,27.9942
2019-03-31T02:06:08.814Z,28.1575
2019-03-31T02:07:11.099Z,28.1727
2019-03-31T02:08:13.393Z,28.0537
2019-03-31T02:09:15.686Z,28.0705
2019-03-31T02:10:17.975Z,28.0537
2019-03-31T02:11:20.383Z,28.0980
2019-03-31T02:12:22.672Z,28.0705
2019-03-31T02:13:24.966Z,28.0705
2019-03-31T02:14:27.254Z,28.0064
2019-03-31T02:15:36.836Z,28.1849
2019-03-31T02:16:39.138Z,28.1544
2019-03-31T02:17:41.428Z,28.0812
2019-03-31T02:18:43.714Z,28.2002
2019-03-31T02:19:46.006Z,28.1117
2019-03-31T02:20:48.392Z,28.1712
2019-03-31T02:21:50.690Z,27.9927
2019-03-31T02:22:52.985Z,28.1544
2019-03-31T02:23:55.270Z,28.1117
2019-03-31T02:24:57.570Z,28.0674
2019-03-31T02:25:59.895Z,28.1254
2019-03-31T02:27:02.193Z,28.1819
2019-03-31T02:28:04.478Z,28.1392
2019-03-31T02:29:06.778Z,28.0934
2019-03-31T02:30:09.082Z,28.1224
2019-03-31T02:31:11.376Z,28.2399
2019-03-31T02:32:23.244Z,28.1178
2019-03-31T02:33:21.933Z,28.1071
2019-03-31T02:34:24.228Z,28.1483
2019-03-31T02:35:26.528Z,28.2231
2019-03-31T02:36:28.927Z,28.1209
2019-03-31T02:37:31.263Z,28.1636
2019-03-31T02:38:33.555Z,28.1621
2019-03-31T02:39:35.866Z,28.2368
2019-03-31T02:40:38.161Z,28.2048
2019-03-31T02:41:40.460Z,28.2078
2019-03-31T02:42:42.762Z,28.1361
2019-03-31T02:43:45.051Z,28.2353
2019-03-31T02:44:47.340Z,28.1315
2019-03-31T02:45:49.631Z,28.0308
2019-03-31T02:46:51.928Z,28.1041
2019-03-31T02:47:54.242Z,28.0308
2019-03-31T02:48:56.546Z,28.0858
2019-03-31T02:49:58.833Z,28.0583
2019-03-31T02:51:01.151Z,28.0293
2019-03-31T02:52:03.448Z,28.0430
2019-03-31T02:53:05.852Z,28.1315
2019-03-31T02:54:08.151Z,28.1163
2019-03-31T02:55:10.452Z,28.1132
2019-03-31T02:56:12.748Z,28.0262
2019-03-31T02:57:15.053Z,28.0400
2019-03-31T02:58:17.352Z,28.0995
2019-03-31T02:59:19.659Z,28.0995
2019-03-31T03:00:21.959Z,28.0522
2019-03-31T03:01:24.257Z,28.1117
2019-03-31T03:02:40.779Z,28.0537
2019-03-31T03:03:34.866Z,28.0537
2019-03-31T03:04:37.153Z,28.1407
2019-03-31T03:05:39.459Z,28.0659
2019-03-31T03:06:41.760Z,28.0385
2019-03-31T03:07:44.046Z,28.1270
2019-03-31T03:08:46.352Z,28.0659
2019-03-31T03:09:48.666Z,28.1392
2019-03-31T03:10:50.968Z,28.0491
2019-03-31T03:11:53.267Z,28.0934
2019-03-31T03:12:55.608Z,28.1254
2019-03-31T03:13:57.914Z,28.1086
2019-03-31T03:15:00.608Z,28.1819
2019-03-31T03:16:02.974Z,28.2399
2019-03-31T03:17:05.274Z,28.0903
2019-03-31T03:18:07.582Z,28.1086
2019-03-31T03:19:09.893Z,28.1804
2019-03-31T03:20:12.204Z,28.1346
2019-03-31T03:21:14.511Z,28.1361
2019-03-31T03:22:16.802Z,28.1224
2019-03-31T03:23:19.096Z,28.1071
2019-03-31T03:24:21.392Z,28.0491
2019-03-31T03:25:23.705Z,28.1071
2019-03-31T03:26:26.005Z,28.1041
2019-03-31T03:27:28.298Z,28.1315
2019-03-31T03:28:30.601Z,28.2231
2019-03-31T03:29:32.900Z,28.1315
2019-03-31T03:30:35.264Z,28.0751
2019-03-31T03:31:37.613Z,28.1041
2019-03-31T03:32:39.927Z,28.1025
2019-03-31T03:33:42.252Z,28.1178
2019-03-31T03:34:44.594Z,28.0720
2019-03-31T03:35:46.885Z,28.1178
2019-03-31T03:36:49.197Z,28.0446
2019-03-31T03:37:51.500Z,28.0568
2019-03-31T03:38:53.799Z,28.0583
2019-03-31T03:39:56.144Z,28.1300
2019-03-31T03:40:58.461Z,28.0568
2019-03-31T03:42:00.760Z,28.0537
2019-03-31T03:43:03.063Z,28.0537
2019-03-31T03:44:05.357Z,28.0674
2019-03-31T03:45:07.653Z,28.0705
2019-03-31T03:46:09.952Z,28.0262
2019-03-31T03:47:12.254Z,28.1163
2019-03-31T03:48:14.556Z,28.0537
2019-03-31T03:49:17.024Z,28.0674
2019-03-31T03:50:19.511Z,28.0858
2019-03-31T03:51:21.809Z,27.9789
2019-03-31T03:52:24.122Z,27.9805
2019-03-31T03:53:26.451Z,27.9942
2019-03-31T03:54:28.768Z,28.0522
2019-03-31T03:55:31.066Z,28.1132
2019-03-31T03:56:33.361Z,28.0812
2019-03-31T03:57:35.654Z,28.0812
2019-03-31T03:58:37.974Z,28.0491
2019-03-31T03:59:40.276Z,28.0522
2019-03-31T04:00:42.586Z,27.9927
2019-03-31T04:01:44.880Z,27.9759
2019-03-31T04:02:47.189Z,28.0385
2019-03-31T04:03:49.503Z,28.0385
2019-03-31T04:04:51.808Z,28.0522
2019-03-31T04:05:54.130Z,27.9744
2019-03-31T04:06:56.435Z,28.0385
2019-03-31T04:07:58.742Z,28.0629
2019-03-31T04:09:01.056Z,28.0064
2019-03-31T04:10:03.351Z,28.0354
2019-03-31T04:11:05.664Z,27.9744
2019-03-31T04:12:07.962Z,28.0385
2019-03-31T04:13:10.398Z,28.0064
2019-03-31T04:14:12.711Z,28.0629
2019-03-31T04:15:15.007Z,28.1117
2019-03-31T04:16:17.326Z,28.0751
2019-03-31T04:17:19.673Z,28.1361
2019-03-31T04:18:21.977Z,28.1071
2019-03-31T04:19:24.279Z,28.1209
2019-03-31T04:20:26.574Z,28.0613
2019-03-31T04:21:28.877Z,28.1071
2019-03-31T04:22:31.172Z,28.1666
2019-03-31T04:23:33.475Z,28.1346
2019-03-31T04:24:35.767Z,28.0446
2019-03-31T04:25:38.054Z,28.0903
2019-03-31T04:26:40.350Z,28.1178
2019-03-31T04:27:42.660Z,28.1483
2019-03-31T04:28:44.964Z,28.0903
2019-03-31T04:29:47.417Z,28.2811
2019-03-31T04:30:49.714Z,28.1636
2019-03-31T04:31:52.016Z,28.1315
2019-03-31T04:32:54.318Z,28.1163
2019-03-31T04:33:56.645Z,28.1041
2019-03-31T04:34:58.968Z,28.1453
2019-03-31T04:36:01.271Z,28.2048
2019-03-31T04:37:03.704Z,28.1910
2019-03-31T04:38:05.996Z,28.2185
2019-03-31T04:39:08.345Z,28.2353
2019-03-31T04:40:10.657Z,28.1895
2019-03-31T04:41:12.976Z,28.2032
2019-03-31T04:42:15.296Z,28.3101
2019-03-31T04:43:17.587Z,28.2032
2019-03-31T04:44:19.878Z,28.2765
2019-03-31T04:45:22.171Z,28.2765
2019-03-31T04:46:24.481Z,28.3192
2019-03-31T04:47:26.786Z,28.2185
2019-03-31T04:48:29.080Z,28.2597
2019-03-31T04:49:31.898Z,28.2765
2019-03-31T04:50:34.190Z,28.2918
2019-03-31T04:51:36.485Z,28.1865
2019-03-31T04:52:38.767Z,28.2445
2019-03-31T04:53:41.106Z,28.2307
2019-03-31T04:54:43.394Z,28.2445
2019-03-31T04:55:45.683Z,28.2765
2019-03-31T04:56:47.978Z,28.2307
2019-03-31T04:57:50.274Z,28.1849
2019-03-31T04:58:52.572Z,28.2719
2019-03-31T04:59:54.871Z,28.2124
2019-03-31T05:00:57.162Z,28.1987
2019-03-31T05:01:59.524Z,28.2734
2019-03-31T05:03:01.824Z,28.2597
2019-03-31T05:04:05.397Z,28.2445
2019-03-31T05:05:07.806Z,28.1712
2019-03-31T05:06:10.110Z,28.1163
2019-03-31T05:07:12.394Z,28.0720
2019-03-31T05:08:14.706Z,28.1163
2019-03-31T05:09:17.000Z,28.1041
2019-03-31T05:10:19.287Z,28.1178
2019-03-31T05:11:21.578Z,28.1483
2019-03-31T05:12:23.867Z,28.0888
2019-03-31T05:13:26.152Z,28.0339
2019-03-31T05:14:28.445Z,28.0171
2019-03-31T05:15:30.813Z,27.9881
2019-03-31T05:16:33.106Z,28.0171
2019-03-31T05:17:35.853Z,27.9881
2019-03-31T05:18:38.372Z,28.0201
2019-03-31T05:19:40.661Z,27.9149
2019-03-31T05:20:42.950Z,27.9606
2019-03-31T05:21:45.236Z,27.9744
2019-03-31T05:22:47.533Z,27.9164
2019-03-31T05:23:49.826Z,27.9301
2019-03-31T05:24:52.126Z,27.9332
2019-03-31T05:25:54.409Z,27.9164
2019-03-31T05:26:56.697Z,27.9194
2019-03-31T05:27:58.989Z,27.8599
2019-03-31T05:29:01.326Z,27.8889
2019-03-31T05:30:03.653Z,27.9301
2019-03-31T05:31:05.962Z,27.8889
2019-03-31T05:32:08.261Z,27.8752
2019-03-31T05:33:10.547Z,27.8294
2019-03-31T05:34:19.355Z,27.9026
2019-03-31T05:35:21.100Z,27.8431
2019-03-31T05:36:23.385Z,27.8431
2019-03-31T05:37:25.675Z,27.7592
2019-03-31T05:38:27.961Z,27.7699
2019-03-31T05:39:30.264Z,27.8019
2019-03-31T05:40:32.547Z,27.7592
2019-03-31T05:41:34.851Z,27.7729
2019-03-31T05:42:37.147Z,27.7836
2019-03-31T05:43:39.447Z,27.7455
2019-03-31T05:44:41.772Z,27.7150
2019-03-31T05:45:44.147Z,27.6722
2019-03-31T05:46:46.449Z,27.7729
2019-03-31T05:47:48.742Z,27.6997
2019-03-31T05:48:51.065Z,27.6722
2019-03-31T05:49:53.358Z,27.7012
2019-03-31T05:50:55.657Z,27.7150
2019-03-31T05:51:57.941Z,27.7287
2019-03-31T05:53:00.232Z,27.7180
2019-03-31T05:54:02.534Z,27.7607
2019-03-31T05:55:04.823Z,27.6265
2019-03-31T05:56:07.117Z,27.6265
2019-03-31T05:57:09.402Z,27.6738
2019-03-31T05:58:11.694Z,27.6448
2019-03-31T05:59:13.985Z,27.6448
2019-03-31T06:00:16.291Z,27.6310
2019-03-31T06:01:18.581Z,27.6280
2019-03-31T06:02:20.874Z,27.6280
2019-03-31T06:03:23.162Z,27.5990
2019-03-31T06:04:33.072Z,27.6600
2019-03-31T06:05:33.704Z,27.6005
2019-03-31T06:06:37.190Z,27.5868
2019-03-31T06:07:39.600Z,27.6188
2019-03-31T06:08:41.894Z,27.6310
2019-03-31T06:09:44.192Z,27.6036
2019-03-31T06:10:46.493Z,27.5441
2019-03-31T06:11:48.793Z,27.6036
2019-03-31T06:12:51.089Z,27.6188
2019-03-31T06:13:53.376Z,27.5898
2019-03-31T06:14:55.672Z,27.6036
2019-03-31T06:15:57.968Z,27.6326
2019-03-31T06:17:00.260Z,27.6036
2019-03-31T06:18:02.557Z,27.5731
2019-03-31T06:19:04.854Z,27.5593
2019-03-31T06:20:07.139Z,27.5456
2019-03-31T06:21:09.441Z,27.5593
2019-03-31T06:22:11.730Z,27.5303
2019-03-31T06:23:14.017Z,27.6188
2019-03-31T06:24:16.306Z,27.6219
2019-03-31T06:25:18.622Z,27.5868
2019-03-31T06:26:20.937Z,27.5624
2019-03-31T06:27:23.232Z,27.5593
2019-03-31T06:28:25.525Z,27.5456
2019-03-31T06:29:27.816Z,27.5761
2019-03-31T06:30:30.102Z,27.5776
2019-03-31T06:31:32.413Z,27.4891
2019-03-31T06:32:34.699Z,27.5761
2019-03-31T06:33:37.005Z,27.5639
2019-03-31T06:34:47.256Z,27.5349
2019-03-31T06:35:47.550Z,27.5624
2019-03-31T06:36:49.875Z,27.5761
2019-03-31T06:37:52.177Z,27.5486
2019-03-31T06:38:54.481Z,27.5624
2019-03-31T06:39:56.765Z,27.5166
2019-03-31T06:40:59.059Z,27.5456
2019-03-31T06:42:01.345Z,27.5456
2019-03-31T06:43:03.640Z,27.4907
2019-03-31T06:44:05.939Z,27.5319
2019-03-31T06:45:08.223Z,27.5074
2019-03-31T06:46:10.514Z,27.5669
2019-03-31T06:47:12.809Z,27.5761
2019-03-31T06:48:15.105Z,27.5639
2019-03-31T06:49:17.396Z,27.5914
2019-03-31T06:50:19.690Z,27.6097
2019-03-31T06:51:21.993Z,27.5761
2019-03-31T06:52:24.294Z,27.6219
2019-03-31T06:53:26.589Z,27.5914
2019-03-31T06:54:28.880Z,27.5639
2019-03-31T06:55:31.231Z,27.6371
2019-03-31T06:56:33.522Z,27.6234
2019-03-31T06:57:35.829Z,27.6356
2019-03-31T06:58:38.130Z,27.6829
2019-03-31T06:59:40.417Z,27.7134
2019-03-31T07:00:42.713Z,27.7562
2019-03-31T07:01:44.997Z,27.7424
2019-03-31T07:02:47.298Z,27.7745
2019-03-31T07:03:49.593Z,27.7424
2019-03-31T07:05:00.859Z,27.7287
2019-03-31T07:06:00.168Z,27.6997
2019-03-31T07:07:02.466Z,27.8157
2019-03-31T07:08:04.768Z,27.7775
2019-03-31T07:09:07.050Z,27.7455
2019-03-31T07:10:09.339Z,27.7287
2019-03-31T07:11:11.631Z,27.8050
2019-03-31T07:12:13.918Z,27.7607
2019-03-31T07:13:16.213Z,27.8935
2019-03-31T07:14:18.503Z,27.8202
2019-03-31T07:15:20.792Z,27.8508
2019-03-31T07:16:23.083Z,27.8553
2019-03-31T07:17:25.454Z,27.8935
2019-03-31T07:18:27.747Z,27.8798
2019-03-31T07:19:30.035Z,27.9103
2019-03-31T07:20:32.336Z,27.9393
2019-03-31T07:21:34.641Z,27.9255
2019-03-31T07:22:36.956Z,27.9423
2019-03-31T07:23:39.264Z,28.0339
2019-03-31T07:24:41.551Z,27.8843
2019-03-31T07:25:43.839Z,27.9896
2019-03-31T07:26:46.132Z,27.9438
2019-03-31T07:27:48.442Z,28.0018
2019-03-31T07:28:50.737Z,27.9301
2019-03-31T07:29:53.038Z,28.0339
2019-03-31T07:30:55.324Z,28.0354
2019-03-31T07:31:57.617Z,28.0201
2019-03-31T07:32:59.913Z,27.9484
2019-03-31T07:34:02.216Z,27.9789
2019-03-31T07:35:17.572Z,27.9332
2019-03-31T07:36:12.786Z,27.9789
2019-03-31T07:37:15.082Z,27.9652
2019-03-31T07:38:17.413Z,27.9942
2019-03-31T07:39:20.067Z,28.0217
2019-03-31T07:40:22.684Z,28.0537
2019-03-31T07:41:25.450Z,27.9210
2019-03-31T07:42:27.843Z,28.0568
2019-03-31T07:43:30.246Z,28.0720
2019-03-31T07:44:32.547Z,27.9515
2019-03-31T07:45:34.834Z,28.0110
2019-03-31T07:46:37.132Z,28.0995
2019-03-31T07:47:39.409Z,28.0125
2019-03-31T07:48:41.693Z,27.9835
2019-03-31T07:49:43.984Z,27.9988
2019-03-31T07:50:46.271Z,27.9255
2019-03-31T07:51:48.562Z,27.9255
2019-03-31T07:52:50.864Z,28.1041
2019-03-31T07:53:53.161Z,27.9698
2019-03-31T07:54:55.458Z,28.0446
2019-03-31T07:55:57.745Z,28.0476
2019-03-31T07:57:00.039Z,28.0629
2019-03-31T07:58:02.330Z,28.1346
2019-03-31T07:59:04.668Z,28.1636
2019-03-31T08:00:07.085Z,28.1529
2019-03-31T08:01:09.374Z,28.0629
2019-03-31T08:02:11.740Z,28.1254
2019-03-31T08:03:14.044Z,28.0201
2019-03-31T08:04:16.341Z,28.0354
2019-03-31T08:05:32.080Z,28.1254
2019-03-31T08:06:26.928Z,28.0491
2019-03-31T08:07:29.233Z,28.0659
2019-03-31T08:08:31.521Z,28.0522
2019-03-31T08:09:33.819Z,28.1086
2019-03-31T08:10:36.109Z,28.0385
2019-03-31T08:11:38.489Z,28.0537
2019-03-31T08:12:40.797Z,28.0568
2019-03-31T08:13:43.088Z,28.0858
2019-03-31T08:14:45.367Z,28.1300
2019-03-31T08:15:47.671Z,28.1727
2019-03-31T08:16:49.962Z,28.1453
2019-03-31T08:17:52.250Z,28.1453
2019-03-31T08:18:54.535Z,28.1163
2019-03-31T08:19:56.842Z,28.1178
2019-03-31T08:20:59.228Z,28.1346
2019-03-31T08:22:01.517Z,28.1346
2019-03-31T08:23:03.809Z,28.1178
2019-03-31T08:24:06.798Z,28.1941
2019-03-31T08:25:09.227Z,28.1910
2019-03-31T08:26:11.530Z,28.1498
2019-03-31T08:27:13.817Z,28.1666
2019-03-31T08:28:16.106Z,28.2078
2019-03-31T08:29:18.399Z,28.1804
2019-03-31T08:30:20.690Z,28.2094
2019-03-31T08:31:22.985Z,28.2261
2019-03-31T08:32:28.282Z,28.3131
2019-03-31T08:33:30.900Z,28.2536
2019-03-31T08:34:33.176Z,28.3009
2019-03-31T08:35:46.733Z,28.3040
2019-03-31T08:36:43.805Z,28.3467
2019-03-31T08:37:46.112Z,28.3879
2019-03-31T08:38:48.407Z,28.4504
2019-03-31T08:39:50.685Z,28.5206
2019-03-31T08:40:53.055Z,28.5695
2019-03-31T08:41:55.357Z,28.5389
2019-03-31T08:42:57.650Z,28.6290
2019-03-31T08:43:59.938Z,28.6442
2019-03-31T08:45:02.231Z,28.7343
2019-03-31T08:46:04.527Z,28.7633
2019-03-31T08:47:06.824Z,28.7175
2019-03-31T08:48:09.107Z,28.7617
2019-03-31T08:49:11.404Z,28.7907
2019-03-31T08:50:13.701Z,28.7770
2019-03-31T08:51:15.994Z,28.8075
2019-03-31T08:52:18.300Z,28.7953
2019-03-31T08:53:20.588Z,28.8991
2019-03-31T08:54:22.877Z,28.8991
2019-03-31T08:55:25.176Z,28.8533
2019-03-31T08:56:27.478Z,28.8991
2019-03-31T08:57:29.774Z,28.8853
2019-03-31T08:58:32.083Z,28.8731
2019-03-31T08:59:34.381Z,28.8716
2019-03-31T09:00:36.669Z,28.8869
2019-03-31T09:01:38.966Z,28.7999
2019-03-31T09:02:41.259Z,28.8869
2019-03-31T09:03:43.617Z,28.8762
2019-03-31T09:04:45.906Z,28.8457
2019-03-31T09:06:01.061Z,28.9921
2019-03-31T09:06:56.452Z,28.9509
2019-03-31T09:07:58.742Z,28.9631
2019-03-31T09:09:01.115Z,28.9357
2019-03-31T09:10:03.411Z,28.8914
2019-03-31T09:11:05.713Z,28.9372
2019-03-31T09:12:08.008Z,28.9235
2019-03-31T09:13:10.304Z,28.9357
2019-03-31T09:14:12.591Z,28.9509
2019-03-31T09:15:14.882Z,28.8960
2019-03-31T09:16:17.176Z,28.9097
2019-03-31T09:17:19.458Z,28.8670
2019-03-31T09:18:21.770Z,28.8396
2019-03-31T09:19:24.062Z,28.8533
2019-03-31T09:20:26.356Z,28.8533
2019-03-31T09:21:28.658Z,28.8685
2019-03-31T09:22:30.948Z,28.9448
2019-03-31T09:23:33.247Z,28.8548
2019-03-31T09:24:35.541Z,28.7388
2019-03-31T09:25:37.839Z,28.8396
2019-03-31T09:26:40.135Z,28.8869
2019-03-31T09:27:42.436Z,28.7984
2019-03-31T09:28:44.733Z,28.7388
2019-03-31T09:29:47.025Z,28.7434
2019-03-31T09:30:49.315Z,28.8167
2019-03-31T09:31:51.605Z,28.7572
2019-03-31T09:32:53.919Z,28.7709
2019-03-31T09:33:56.213Z,28.7434
2019-03-31T09:34:58.512Z,28.7297
2019-03-31T09:36:15.112Z,28.7297
2019-03-31T09:37:09.047Z,28.6854
2019-03-31T09:38:11.353Z,28.6427
2019-03-31T09:39:13.655Z,28.6885
2019-03-31T09:40:15.945Z,28.6717
2019-03-31T09:41:18.240Z,28.6580
2019-03-31T09:42:20.538Z,28.6168
2019-03-31T09:43:22.826Z,28.5847
2019-03-31T09:44:25.171Z,28.6442
2019-03-31T09:45:27.455Z,28.5695
2019-03-31T09:46:29.744Z,28.5435
2019-03-31T09:47:32.068Z,28.6015
2019-03-31T09:48:33.373Z,28.5557
2019-03-31T09:49:35.668Z,28.5283
2019-03-31T09:50:37.964Z,28.5252
2019-03-31T09:51:40.243Z,28.5573
2019-03-31T09:52:42.531Z,28.5435
2019-03-31T09:53:44.830Z,28.5161
2019-03-31T09:54:47.134Z,28.4550
2019-03-31T09:55:49.433Z,28.4749
2019-03-31T09:56:51.724Z,28.4916
2019-03-31T09:57:54.022Z,28.4459
2019-03-31T09:58:56.339Z,28.4291
2019-03-31T09:59:58.632Z,28.3696
2019-03-31T10:01:00.932Z,28.3726
2019-03-31T10:02:03.223Z,28.4016
2019-03-31T10:03:05.537Z,28.3314
2019-03-31T10:04:07.933Z,28.2857
2019-03-31T10:05:10.243Z,28.3467
2019-03-31T10:06:12.530Z,28.3146
2019-03-31T10:07:14.826Z,28.3177
2019-03-31T10:08:17.130Z,28.2857
2019-03-31T10:09:19.417Z,28.3009
2019-03-31T10:10:21.720Z,28.2765
2019-03-31T10:11:24.012Z,28.2872
2019-03-31T10:12:26.299Z,28.2582
2019-03-31T10:13:28.603Z,28.2902
2019-03-31T10:14:30.890Z,28.3177
2019-03-31T10:15:33.189Z,28.2902
2019-03-31T10:16:35.475Z,28.2322
2019-03-31T10:17:37.776Z,28.2811
2019-03-31T10:18:40.061Z,28.2231
2019-03-31T10:19:42.347Z,28.2231
2019-03-31T10:20:44.655Z,28.2811
2019-03-31T10:21:46.952Z,28.3406
2019-03-31T10:22:49.248Z,28.3101
2019-03-31T10:23:51.537Z,28.2948
2019-03-31T10:24:53.835Z,28.2094
2019-03-31T10:25:56.130Z,28.2261
2019-03-31T10:26:58.429Z,28.2536
2019-03-31T10:28:00.721Z,28.2261
2019-03-31T10:29:03.006Z,28.2582
2019-03-31T10:30:05.311Z,28.2399
2019-03-31T10:31:07.601Z,28.2277
2019-03-31T10:32:09.896Z,28.2399
2019-03-31T10:33:12.192Z,28.2414
2019-03-31T10:34:14.482Z,28.2719
2019-03-31T10:35:16.779Z,28.2307
2019-03-31T10:36:19.084Z,28.2445
2019-03-31T10:37:21.383Z,28.2902
2019-03-31T10:38:23.670Z,28.2170
2019-03-31T10:39:25.957Z,28.2902
2019-03-31T10:40:28.244Z,28.2322
2019-03-31T10:41:31.058Z,28.2780
2019-03-31T10:42:33.443Z,28.2628
2019-03-31T10:43:35.740Z,28.2918
2019-03-31T10:44:38.028Z,28.2490
2019-03-31T10:45:40.317Z,28.2643
2019-03-31T10:46:42.627Z,28.3223
2019-03-31T10:47:44.914Z,28.3406
2019-03-31T10:48:47.210Z,28.3085
2019-03-31T10:49:49.516Z,28.3406
2019-03-31T10:50:51.799Z,28.3085
2019-03-31T10:51:54.093Z,28.3406
2019-03-31T10:52:56.388Z,28.3558
2019-03-31T10:53:58.684Z,28.4138
2019-03-31T10:55:00.993Z,28.4459
2019-03-31T10:56:03.297Z,28.3970
2019-03-31T10:57:05.592Z,28.4871
2019-03-31T10:58:07.887Z,28.4474
2019-03-31T10:59:10.186Z,28.3589
2019-03-31T11:00:12.479Z,28.3879
2019-03-31T11:01:14.765Z,28.3452
2019-03-31T11:02:17.064Z,28.3909
2019-03-31T11:03:19.386Z,28.3467
2019-03-31T11:04:21.672Z,28.3909
2019-03-31T11:05:23.965Z,28.4657
2019-03-31T11:06:26.261Z,28.4794
2019-03-31T11:07:28.559Z,28.4932
2019-03-31T11:08:30.846Z,28.5985
2019-03-31T11:09:34.486Z,28.5664
2019-03-31T11:10:36.865Z,28.4825
2019-03-31T11:11:39.270Z,28.5252
2019-03-31T11:12:41.587Z,28.5710
2019-03-31T11:13:43.883Z,28.5710
2019-03-31T11:14:46.175Z,28.5847
2019-03-31T11:15:48.468Z,28.6717
2019-03-31T11:16:50.759Z,28.6152
2019-03-31T11:17:53.059Z,28.6885
2019-03-31T11:18:55.352Z,28.6885
2019-03-31T11:20:00.589Z,28.6625
2019-03-31T11:21:03.232Z,28.6763
2019-03-31T11:22:05.542Z,28.6793
2019-03-31T11:23:07.827Z,28.5924
2019-03-31T11:24:10.118Z,28.6671
2019-03-31T11:25:20.709Z,28.7221
2019-03-31T11:26:20.659Z,28.7221
2019-03-31T11:27:22.952Z,28.7388
2019-03-31T11:28:25.334Z,28.7221
2019-03-31T11:29:27.637Z,28.6793
2019-03-31T11:30:29.935Z,28.7663
2019-03-31T11:31:32.228Z,28.7984
2019-03-31T11:32:34.603Z,28.7404
2019-03-31T11:33:36.907Z,28.7114
2019-03-31T11:34:39.197Z,28.7221
2019-03-31T11:35:41.495Z,28.7678
2019-03-31T11:36:43.797Z,28.6671
2019-03-31T11:37:46.091Z,28.7129
2019-03-31T11:38:48.385Z,28.7266
2019-03-31T11:39:50.671Z,28.7709
2019-03-31T11:40:52.960Z,28.7709
2019-03-31T11:41:55.256Z,28.7709
2019-03-31T11:42:57.549Z,28.7297
2019-03-31T11:43:59.849Z,28.6992
2019-03-31T11:45:02.150Z,28.6107
2019-03-31T11:46:04.452Z,28.6839
2019-03-31T11:47:06.749Z,28.6397
2019-03-31T11:48:09.039Z,28.6992
2019-03-31T11:49:11.336Z,28.5969
2019-03-31T11:50:13.643Z,28.6702
2019-03-31T11:51:15.950Z,28.6717
2019-03-31T11:52:18.256Z,28.6976
2019-03-31T11:53:20.544Z,28.7129
2019-03-31T11:54:22.836Z,28.7343
2019-03-31T11:55:25.141Z,28.7449
2019-03-31T11:56:27.430Z,28.6427
2019-03-31T11:57:29.720Z,28.5832
2019-03-31T11:58:32.444Z,28.6107
2019-03-31T11:59:34.857Z,28.6992
2019-03-31T12:00:37.155Z,28.7617
2019-03-31T12:01:39.453Z,28.7160
2019-03-31T12:02:41.742Z,28.6748
2019-03-31T12:03:44.031Z,28.7022
2019-03-31T12:04:46.333Z,28.7617
2019-03-31T12:05:48.643Z,28.7205
2019-03-31T12:06:50.943Z,28.7495
2019-03-31T12:07:53.250Z,28.5420
2019-03-31T12:08:55.542Z,28.5878
2019-03-31T12:09:57.834Z,28.6015
2019-03-31T12:11:00.124Z,28.5527
2019-03-31T12:12:02.418Z,28.4657
2019-03-31T12:13:04.718Z,28.3497
2019-03-31T12:14:07.008Z,28.4413
2019-03-31T12:15:09.321Z,28.3833
2019-03-31T12:16:11.619Z,28.3818
2019-03-31T12:17:13.935Z,28.4413
2019-03-31T12:18:16.223Z,28.3085
2019-03-31T12:19:18.511Z,28.3238
2019-03-31T12:20:20.900Z,28.3680
2019-03-31T12:21:23.196Z,28.4245
2019-03-31T12:22:25.485Z,28.3497
2019-03-31T12:23:27.774Z,28.3375
2019-03-31T12:24:30.086Z,28.3360
2019-03-31T12:25:32.389Z,28.4245
2019-03-31T12:26:34.704Z,28.3680
2019-03-31T12:27:37.011Z,28.2948
2019-03-31T12:28:39.300Z,28.3375
2019-03-31T12:29:41.593Z,28.1453
2019-03-31T12:30:43.897Z,27.9973
2019-03-31T12:31:46.187Z,28.2963
2019-03-31T12:32:48.485Z,28.3513
2019-03-31T12:33:50.767Z,28.2368
2019-03-31T12:34:53.070Z,27.6417
2019-03-31T12:35:55.358Z,27.4525